Time;durP1;ratioP1;P1;durP2;ratioP2;P2;SDS_P1;SDS_P2;PMS_P1;PMS_P2;Temp;Humidity;BMP_temperature;BMP_pressure;BME280_temperature;BME280_humidity;BME280_pressure;Samples;Min_cycle;Max_cycle;Signal;HPM_P1;HPM_P2
2021/08/05 00:01:20;;;;;;;0.85;0.70;;;24.40;57.80;;;;;;6240305;28;20025;-71
2021/08/05 00:04:21;;;;;;;0.90;0.80;;;24.40;57.80;;;;;;6239926;28;20042;-71
2021/08/05 00:07:21;;;;;;;0.95;0.80;;;24.40;57.80;;;;;;6239215;28;20484;-71
2021/08/05 00:10:22;;;;;;;0.82;0.82;;;24.40;57.80;;;;;;6240529;28;20032;-71
2021/08/05 00:13:23;;;;;;;1.63;0.80;;;24.40;57.80;;;;;;6235534;28;20025;-71
2021/08/05 00:16:23;;;;;;;1.05;0.88;;;24.40;57.80;;;;;;6235517;28;20084;-71
2021/08/05 00:19:24;;;;;;;1.02;0.73;;;24.40;57.80;;;;;;6239871;28;20522;-71
2021/08/05 00:22:25;;;;;;;1.00;0.80;;;24.40;57.80;;;;;;6239680;28;20025;-71
2021/08/05 00:25:25;;;;;;;0.70;0.70;;;24.40;57.80;;;;;;6240121;28;20021;-71
2021/08/05 00:28:26;;;;;;;1.63;1.17;;;24.40;57.80;;;;;;6240043;28;20124;-71
2021/08/05 00:31:26;;;;;;;0.80;0.80;;;24.40;57.90;;;;;;6240566;28;20028;-71
2021/08/05 00:34:27;;;;;;;1.45;1.13;;;24.40;57.80;;;;;;6240785;28;20036;-70
2021/08/05 00:37:28;;;;;;;0.80;0.80;;;24.40;57.80;;;;;;6244042;28;20249;-71
2021/08/05 00:40:28;;;;;;;0.70;0.70;;;24.40;57.80;;;;;;6244321;28;20120;-71
2021/08/05 00:43:29;;;;;;;1.95;0.95;;;24.40;57.80;;;;;;6244621;28;20029;-71
2021/08/05 00:46:29;;;;;;;1.13;0.77;;;24.40;57.90;;;;;;6244354;28;20025;-71
2021/08/05 00:49:30;;;;;;;0.82;0.80;;;24.40;57.80;;;;;;6244140;28;20075;-71
2021/08/05 00:52:31;;;;;;;0.68;0.68;;;24.40;57.80;;;;;;6243746;28;20049;-71
2021/08/05 00:55:31;;;;;;;1.10;0.82;;;24.40;57.80;;;;;;6243551;28;20129;-71
2021/08/05 00:58:32;;;;;;;0.80;0.70;;;24.40;57.80;;;;;;6244034;28;20048;-71
2021/08/05 01:01:49;;;;;;;1.10;0.90;;;24.40;57.80;;;;;;6243773;28;20064;-71
2021/08/05 01:04:53;;;;;;;0.80;0.80;;;24.40;57.80;;;;;;6244228;28;20018;-71
2021/08/05 01:08:07;;;;;;;0.95;0.82;;;24.40;57.80;;;;;;6241819;28;20404;-71
2021/08/05 01:11:15;;;;;;;0.98;0.80;;;24.40;57.80;;;;;;6243456;28;20152;-71
2021/08/05 01:14:18;;;;;;;1.10;0.82;;;24.40;57.80;;;;;;6231321;28;20061;-70
2021/08/05 01:17:21;;;;;;;0.60;0.60;;;24.40;57.80;;;;;;6232533;28;20023;-71
2021/08/05 01:20:23;;;;;;;0.77;0.75;;;24.40;57.80;;;;;;6219088;28;20034;-71
2021/08/05 01:23:29;;;;;;;0.60;0.50;;;24.40;57.80;;;;;;6240268;28;20535;-71
2021/08/05 01:26:30;;;;;;;0.93;0.70;;;24.40;57.80;;;;;;6243012;28;20021;-71
2021/08/05 01:29:34;;;;;;;0.75;0.75;;;24.40;57.70;;;;;;6242854;28;20025;-71
2021/08/05 01:32:35;;;;;;;1.02;0.90;;;24.40;57.80;;;;;;6242950;28;20083;-71
2021/08/05 01:35:37;;;;;;;1.02;0.70;;;24.40;57.80;;;;;;6242928;28;20029;-71
2021/08/05 01:38:38;;;;;;;0.80;0.73;;;24.40;57.80;;;;;;6242862;28;20504;-70
2021/08/05 01:41:41;;;;;;;1.00;0.88;;;24.40;57.70;;;;;;6242855;28;20026;-71
2021/08/05 01:44:45;;;;;;;2.90;0.57;;;24.40;57.70;;;;;;6242801;28;20029;-71
2021/08/05 01:47:46;;;;;;;1.00;0.80;;;24.40;57.80;;;;;;6242160;28;20036;-71
2021/08/05 01:50:48;;;;;;;0.75;0.60;;;24.40;57.80;;;;;;6242975;28;20025;-71
2021/08/05 01:53:51;;;;;;;0.68;0.60;;;24.40;57.70;;;;;;6242403;28;20042;-71
2021/08/05 01:56:51;;;;;;;1.00;0.80;;;24.40;57.70;;;;;;6242165;28;20096;-71
2021/08/05 01:59:52;;;;;;;1.17;0.70;;;24.40;57.80;;;;;;6242261;28;20033;-71
2021/08/05 02:02:55;;;;;;;1.30;0.80;;;24.40;57.70;;;;;;6242236;28;20037;-71
2021/08/05 02:06:21;;;;;;;0.80;0.73;;;24.40;57.70;;;;;;6242831;28;20025;-71
2021/08/05 02:09:27;;;;;;;0.77;0.70;;;24.40;57.80;;;;;;6242015;28;20133;-71
2021/08/05 02:12:32;;;;;;;1.05;0.90;;;24.40;57.80;;;;;;6241897;28;20500;-71
2021/08/05 02:15:36;;;;;;;1.00;0.90;;;24.40;57.70;;;;;;6220191;28;20029;-71
2021/08/05 02:18:38;;;;;;;1.30;0.70;;;24.40;57.80;;;;;;6232509;28;20500;-71
2021/08/05 02:21:41;;;;;;;0.88;0.70;;;24.40;57.70;;;;;;6242094;28;20056;-71
2021/08/05 02:24:42;;;;;;;0.70;0.70;;;24.40;57.70;;;;;;6241777;28;20025;-71
2021/08/05 02:27:44;;;;;;;0.75;0.70;;;24.40;57.80;;;;;;6241978;28;20063;-71
2021/08/05 02:30:46;;;;;;;1.08;0.90;;;24.40;57.70;;;;;;6241721;28;20026;-70
2021/08/05 02:33:50;;;;;;;0.73;0.60;;;24.40;57.70;;;;;;6241424;28;20053;-71
2021/08/05 02:36:51;;;;;;;0.60;0.60;;;24.40;57.70;;;;;;6241760;28;20026;-71
2021/08/05 02:39:52;;;;;;;1.05;0.80;;;24.40;57.70;;;;;;6241269;28;20118;-71
2021/08/05 02:42:53;;;;;;;0.70;0.60;;;24.40;57.80;;;;;;6241238;28;20030;-70
2021/08/05 02:45:56;;;;;;;0.70;0.70;;;24.40;57.70;;;;;;6241842;28;20034;-71
2021/08/05 02:48:57;;;;;;;0.88;0.70;;;24.40;57.70;;;;;;6241315;28;20366;-71
2021/08/05 02:51:58;;;;;;;0.82;0.73;;;24.40;57.60;;;;;;6241081;28;20026;-71
2021/08/05 02:55:00;;;;;;;0.60;0.60;;;24.40;57.70;;;;;;6241219;28;20492;-71
2021/08/05 02:58:01;;;;;;;0.70;0.60;;;24.40;57.60;;;;;;6240285;28;20033;-71
2021/08/05 03:01:02;;;;;;;0.70;0.70;;;24.40;57.70;;;;;;6241080;28;20091;-71
2021/08/05 03:04:02;;;;;;;0.80;0.80;;;24.40;57.70;;;;;;6240424;28;20028;-71
2021/08/05 03:07:06;;;;;;;0.70;0.68;;;24.40;57.70;;;;;;6241045;28;20040;-71
2021/08/05 03:10:08;;;;;;;0.55;0.55;;;24.40;57.60;;;;;;6240714;28;20116;-71
2021/08/05 03:13:08;;;;;;;0.52;0.52;;;24.40;57.70;;;;;;6237860;28;20033;-71
2021/08/05 03:16:11;;;;;;;0.90;0.77;;;24.40;57.70;;;;;;6239946;28;20052;-71
2021/08/05 03:19:11;;;;;;;0.60;0.60;;;24.40;57.70;;;;;;6240436;28;20091;-71
2021/08/05 03:22:11;;;;;;;1.05;0.90;;;24.30;57.60;;;;;;6240731;28;20370;-71
2021/08/05 03:25:12;;;;;;;0.80;0.68;;;24.40;57.70;;;;;;6240820;28;20029;-71
2021/08/05 03:28:13;;;;;;;0.93;0.60;;;24.40;57.60;;;;;;6240800;28;20400;-70
2021/08/05 03:31:13;;;;;;;0.60;0.60;;;24.40;57.60;;;;;;6240890;28;20443;-71
2021/08/05 03:34:14;;;;;;;0.57;0.57;;;24.40;57.60;;;;;;6241645;28;20182;-70
2021/08/05 03:37:15;;;;;;;1.15;0.80;;;24.40;57.70;;;;;;6240950;28;20080;-71
2021/08/05 03:40:15;;;;;;;0.60;0.60;;;24.40;57.70;;;;;;6240376;28;20452;-71
2021/08/05 03:43:16;;;;;;;0.80;0.65;;;24.40;57.70;;;;;;6240822;28;20110;-71
2021/08/05 03:46:16;;;;;;;0.55;0.50;;;24.40;57.60;;;;;;6239989;28;20026;-71
2021/08/05 03:49:17;;;;;;;0.57;0.57;;;24.30;57.50;;;;;;6240491;28;20037;-71
2021/08/05 03:52:17;;;;;;;1.35;0.80;;;24.40;57.60;;;;;;6240357;28;20029;-71
2021/08/05 03:55:18;;;;;;;0.65;0.65;;;24.40;57.70;;;;;;6240251;28;20041;-71
2021/08/05 03:58:19;;;;;;;0.93;0.70;;;24.40;57.60;;;;;;6238901;28;20481;-70
2021/08/05 04:01:19;;;;;;;1.30;0.80;;;24.40;57.60;;;;;;6240368;28;20029;-71
2021/08/05 04:04:20;;;;;;;0.68;0.65;;;24.40;57.60;;;;;;6239229;28;20503;-71
2021/08/05 04:07:20;;;;;;;0.75;0.70;;;24.40;57.60;;;;;;6240328;28;20500;-71
2021/08/05 04:10:21;;;;;;;0.75;0.73;;;24.40;57.60;;;;;;6243600;28;20018;-70
2021/08/05 04:13:21;;;;;;;1.95;0.75;;;24.40;57.60;;;;;;6244876;28;20034;-71
2021/08/05 04:16:22;;;;;;;0.80;0.70;;;24.40;57.60;;;;;;6244794;28;20458;-71
2021/08/05 04:19:26;;;;;;;0.85;0.70;;;24.30;57.50;;;;;;6244753;28;20457;-71
2021/08/05 04:22:26;;;;;;;0.63;0.60;;;24.40;57.60;;;;;;6244648;28;20029;-71
2021/08/05 04:25:27;;;;;;;1.00;0.80;;;24.40;57.60;;;;;;6247303;28;20095;-71
2021/08/05 04:28:28;;;;;;;0.50;0.50;;;24.40;57.60;;;;;;6244379;28;20064;-71
2021/08/05 04:31:29;;;;;;;0.70;0.60;;;24.40;57.60;;;;;;6244940;28;20377;-71
2021/08/05 04:34:29;;;;;;;0.60;0.60;;;24.40;57.50;;;;;;6245136;28;20060;-71
2021/08/05 04:37:30;;;;;;;0.50;0.50;;;24.40;57.60;;;;;;6244566;28;20021;-71
2021/08/05 04:40:31;;;;;;;0.52;0.50;;;24.40;57.50;;;;;;6244082;28;20028;-71
2021/08/05 04:43:31;;;;;;;0.70;0.68;;;24.40;57.60;;;;;;6244788;28;20033;-71
2021/08/05 04:46:32;;;;;;;0.73;0.65;;;24.40;57.60;;;;;;6243834;28;20113;-71
2021/08/05 04:49:32;;;;;;;0.68;0.50;;;24.40;57.60;;;;;;6244178;28;20121;-71
2021/08/05 04:52:33;;;;;;;0.60;0.60;;;24.40;57.50;;;;;;6243736;28;20034;-70
2021/08/05 04:55:33;;;;;;;0.50;0.50;;;24.40;57.60;;;;;;6244392;28;20056;-71
2021/08/05 04:58:34;;;;;;;0.98;0.70;;;24.40;57.50;;;;;;6243973;28;20029;-71
2021/08/05 05:01:34;;;;;;;0.75;0.75;;;24.40;57.60;;;;;;6242193;28;20029;-71
2021/08/05 05:04:35;;;;;;;0.82;0.77;;;24.40;57.50;;;;;;6244055;28;20033;-71
2021/08/05 05:07:36;;;;;;;0.73;0.70;;;24.40;57.60;;;;;;6243205;28;20088;-71
2021/08/05 05:10:36;;;;;;;0.85;0.70;;;24.40;57.60;;;;;;6243836;28;20104;-71
2021/08/05 05:13:37;;;;;;;0.90;0.70;;;24.40;57.60;;;;;;6237641;28;20105;-71
2021/08/05 05:16:37;;;;;;;0.55;0.50;;;24.40;57.60;;;;;;6226754;28;20026;-71
2021/08/05 05:19:38;;;;;;;0.50;0.50;;;24.40;57.60;;;;;;6243178;28;20022;-71
2021/08/05 05:22:39;;;;;;;1.02;0.60;;;24.40;57.60;;;;;;6242938;28;20484;-71
2021/08/05 05:25:40;;;;;;;0.50;0.50;;;24.40;57.60;;;;;;6243710;28;20080;-71
2021/08/05 05:28:41;;;;;;;1.10;0.60;;;24.40;57.50;;;;;;6243218;28;20033;-71
2021/08/05 05:31:41;;;;;;;0.68;0.68;;;24.40;57.50;;;;;;6242781;28;20508;-70
2021/08/05 05:34:42;;;;;;;0.73;0.70;;;24.40;57.50;;;;;;6243532;28;20037;-71
2021/08/05 05:37:44;;;;;;;0.52;0.47;;;24.40;57.50;;;;;;6220845;28;20058;-71
2021/08/05 05:40:45;;;;;;;0.70;0.70;;;24.40;57.50;;;;;;6241744;28;20021;-71
2021/08/05 05:43:45;;;;;;;1.45;1.13;;;24.40;57.10;;;;;;6237005;28;20396;-71
2021/08/05 05:46:46;;;;;;;4.07;1.20;;;24.40;56.70;;;;;;6241083;28;20396;-71
2021/08/05 05:49:47;;;;;;;1.25;0.88;;;24.40;55.60;;;;;;6241347;28;20033;-70
2021/08/05 05:52:47;;;;;;;1.67;1.42;;;24.40;55.00;;;;;;6240575;28;20429;-71
2021/08/05 05:55:48;;;;;;;3.85;1.30;;;24.40;54.60;;;;;;6235689;28;20053;-71
2021/08/05 05:58:49;;;;;;;3.90;1.30;;;24.40;54.40;;;;;;6242594;28;20282;-72
2021/08/05 06:01:49;;;;;;;6.03;1.52;;;24.40;54.50;;;;;;6236737;28;20167;-71
2021/08/05 06:04:49;;;;;;;11.50;1.60;;;24.40;54.50;;;;;;6228947;28;20026;-71
2021/08/05 06:07:51;;;;;;;3.60;1.40;;;24.40;54.30;;;;;;6228200;28;20547;-70
2021/08/05 06:10:52;;;;;;;5.30;1.77;;;24.40;54.10;;;;;;6243040;28;20091;-70
2021/08/05 06:13:53;;;;;;;3.80;1.90;;;24.40;54.00;;;;;;6241909;28;20476;-70
2021/08/05 06:16:54;;;;;;;5.22;1.90;;;24.40;54.10;;;;;;6242861;28;20388;-71
2021/08/05 06:19:54;;;;;;;4.80;1.65;;;24.30;53.90;;;;;;6242384;28;20056;-71
2021/08/05 06:22:55;;;;;;;2.85;1.80;;;24.40;54.10;;;;;;6243104;28;20026;-71
2021/08/05 06:25:55;;;;;;;5.90;1.77;;;24.30;54.10;;;;;;6242722;28;20025;-71
2021/08/05 06:28:56;;;;;;;7.63;1.85;;;24.40;54.50;;;;;;6242231;28;20036;-71
2021/08/05 06:31:57;;;;;;;8.52;1.75;;;24.40;55.10;;;;;;6229007;28;20367;-71
2021/08/05 06:34:57;;;;;;;2.22;1.60;;;24.40;55.70;;;;;;6242097;28;20040;-71
2021/08/05 06:37:58;;;;;;;2.17;1.48;;;24.30;55.80;;;;;;6242459;28;20393;-71
2021/08/05 06:40:58;;;;;;;2.38;1.42;;;24.30;55.90;;;;;;6242801;28;20030;-70
2021/08/05 06:43:59;;;;;;;2.08;1.27;;;24.30;56.00;;;;;;6242025;28;20109;-71
2021/08/05 06:47:04;;;;;;;6.13;1.80;;;24.40;56.10;;;;;;6242601;28;20481;-71
2021/08/05 06:50:05;;;;;;;2.17;1.38;;;24.30;56.00;;;;;;6242662;28;20056;-70
2021/08/05 06:53:06;;;;;;;3.72;1.75;;;24.40;56.10;;;;;;6242492;28;20076;-70
2021/08/05 06:56:06;;;;;;;1.90;1.40;;;24.40;56.20;;;;;;6242503;28;20049;-70
2021/08/05 06:59:09;;;;;;;1.63;1.20;;;24.40;56.20;;;;;;6242336;28;20017;-70
2021/08/05 07:02:10;;;;;;;4.43;1.60;;;24.40;56.30;;;;;;6242470;28;20028;-71
2021/08/05 07:05:11;;;;;;;1.60;1.30;;;24.40;56.30;;;;;;6241356;28;20472;-71
2021/08/05 07:08:12;;;;;;;1.35;0.98;;;24.40;56.40;;;;;;6242369;28;20044;-71
2021/08/05 07:11:12;;;;;;;1.50;1.27;;;24.40;56.40;;;;;;6231321;28;20509;-70
2021/08/05 07:14:13;;;;;;;1.30;1.10;;;24.40;56.40;;;;;;6224874;28;20555;-70
2021/08/05 07:17:15;;;;;;;4.35;1.33;;;24.40;56.50;;;;;;6241859;28;20222;-71
2021/08/05 07:20:18;;;;;;;1.38;1.27;;;24.40;56.50;;;;;;6242161;28;20116;-70
2021/08/05 07:23:18;;;;;;;1.95;1.40;;;24.40;56.50;;;;;;6240849;28;20060;-70
2021/08/05 07:26:19;;;;;;;1.40;1.20;;;24.40;56.50;;;;;;6241609;28;20029;-70
2021/08/05 07:29:19;;;;;;;2.10;1.45;;;24.40;56.50;;;;;;6242066;28;20048;-70
2021/08/05 07:32:20;;;;;;;1.42;1.15;;;24.40;56.50;;;;;;6241875;28;20037;-70
2021/08/05 07:35:20;;;;;;;1.75;1.13;;;24.40;56.50;;;;;;6240508;28;20029;-71
2021/08/05 07:38:21;;;;;;;1.60;1.00;;;24.40;56.60;;;;;;6223535;28;20188;-70
2021/08/05 07:41:22;;;;;;;2.05;1.20;;;24.40;56.60;;;;;;6238960;28;20113;-70
2021/08/05 07:44:22;;;;;;;2.47;1.30;;;24.40;56.60;;;;;;6244167;28;20036;-71
2021/08/05 07:47:24;;;;;;;1.95;1.27;;;24.40;56.60;;;;;;6246559;28;20491;-71
2021/08/05 07:50:25;;;;;;;1.90;1.20;;;24.40;56.60;;;;;;6247143;28;20365;-71
2021/08/05 07:53:26;;;;;;;2.08;1.25;;;24.40;56.60;;;;;;6247441;28;20036;-71
2021/08/05 07:56:26;;;;;;;1.17;0.80;;;24.40;56.60;;;;;;6247032;28;20146;-71
2021/08/05 07:59:27;;;;;;;1.67;1.00;;;24.40;56.70;;;;;;6247011;28;20021;-72
2021/08/05 08:02:28;;;;;;;1.67;1.00;;;24.40;56.70;;;;;;6247216;28;20393;-71
2021/08/05 08:05:28;;;;;;;1.60;1.20;;;24.40;56.70;;;;;;6247217;28;20105;-71
2021/08/05 08:08:29;;;;;;;1.33;1.00;;;24.40;56.70;;;;;;6247288;28;20033;-71
2021/08/05 08:11:30;;;;;;;1.33;1.17;;;24.40;56.80;;;;;;6233221;28;20038;-71
2021/08/05 08:14:31;;;;;;;1.52;1.13;;;24.40;56.80;;;;;;6222848;28;20026;-71
2021/08/05 08:17:31;;;;;;;2.05;1.17;;;24.40;56.80;;;;;;6246031;28;20032;-71
2021/08/05 08:20:32;;;;;;;1.60;1.25;;;24.40;56.80;;;;;;6246335;28;20547;-70
2021/08/05 08:23:33;;;;;;;1.35;0.93;;;24.40;56.80;;;;;;6246785;28;20484;-71
2021/08/05 08:26:33;;;;;;;1.35;0.98;;;24.40;56.80;;;;;;6246199;28;20391;-71
2021/08/05 08:29:34;;;;;;;1.67;0.90;;;24.40;56.90;;;;;;6246256;28;20075;-71
2021/08/05 08:32:34;;;;;;;2.15;1.20;;;24.40;56.90;;;;;;6245684;28;20116;-70
2021/08/05 08:35:35;;;;;;;1.48;1.10;;;24.40;56.80;;;;;;6245651;28;20511;-71
2021/08/05 08:38:35;;;;;;;1.17;1.00;;;24.40;56.80;;;;;;6245592;28;20036;-71
2021/08/05 08:41:38;;;;;;;1.25;0.90;;;24.40;56.90;;;;;;6238257;28;20084;-70
2021/08/05 08:44:38;;;;;;;1.13;0.98;;;24.40;56.90;;;;;;6245494;28;20065;-71
2021/08/05 08:47:40;;;;;;;2.00;1.20;;;24.40;56.90;;;;;;6233045;28;20732;-70
2021/08/05 08:50:43;;;;;;;1.08;0.90;;;24.40;56.90;;;;;;6226418;28;20022;-71
2021/08/05 08:53:47;;;;;;;1.35;0.93;;;24.40;57.00;;;;;;6244863;28;20032;-70
2021/08/05 08:56:48;;;;;;;1.40;1.10;;;24.40;57.00;;;;;;6243753;28;20061;-71
2021/08/05 08:59:50;;;;;;;1.30;0.90;;;24.40;57.00;;;;;;6246096;28;20521;-71
2021/08/05 09:02:50;;;;;;;1.10;1.00;;;24.40;57.60;;;;;;6244736;28;20500;-71
2021/08/05 09:05:51;;;;;;;1.42;1.02;;;24.40;57.00;;;;;;6244220;28;20025;-70
2021/08/05 09:08:51;;;;;;;1.40;1.10;;;24.40;57.00;;;;;;6244925;28;20407;-71
2021/08/05 09:11:52;;;;;;;1.23;0.95;;;24.40;57.00;;;;;;6244805;28;20040;-71
2021/08/05 09:14:53;;;;;;;1.48;1.08;;;24.40;57.00;;;;;;6228348;28;20034;-71
2021/08/05 09:17:54;;;;;;;1.10;1.00;;;24.40;57.00;;;;;;6238142;28;20112;-70
2021/08/05 09:21:26;;;;;;;1.45;1.02;;;24.40;57.00;;;;;;6244943;28;20036;-71
2021/08/05 09:24:29;;;;;;;1.30;0.93;;;24.40;57.00;;;;;;6240694;28;20048;-71
2021/08/05 09:27:33;;;;;;;2.03;0.90;;;24.40;57.00;;;;;;6243384;28;20159;-70
2021/08/05 09:30:36;;;;;;;1.00;0.88;;;24.40;57.00;;;;;;6245371;28;20029;-71
2021/08/05 09:33:37;;;;;;;1.00;0.88;;;24.40;57.10;;;;;;6244514;28;20032;-71
2021/08/05 09:36:39;;;;;;;1.33;0.90;;;24.40;57.10;;;;;;6243529;28;20053;-71
2021/08/05 09:39:41;;;;;;;1.92;1.10;;;24.40;57.10;;;;;;6244392;28;20032;-70
2021/08/05 09:42:57;;;;;;;1.08;0.90;;;24.40;57.10;;;;;;6241217;28;20025;-70
2021/08/05 09:45:57;;;;;;;1.02;0.80;;;24.40;57.10;;;;;;6244032;28;20420;-71
2021/08/05 09:48:58;;;;;;;1.23;0.93;;;24.40;57.10;;;;;;6243467;28;20030;-70
2021/08/05 09:52:00;;;;;;;2.88;0.90;;;24.40;57.10;;;;;;6229043;28;20278;-70
2021/08/05 09:55:04;;;;;;;1.83;1.45;;;24.40;57.20;;;;;;6243851;28;20504;-70
2021/08/05 09:58:08;;;;;;;5.93;0.97;;;24.40;57.70;;;;;;6245798;28;20033;-70
2021/08/05 10:01:09;;;;;;;2.53;1.05;;;24.40;57.70;;;;;;6244661;28;20416;-69
2021/08/05 10:04:26;;;;;;;3.58;0.70;;;24.40;57.70;;;;;;6245034;28;20045;-69
2021/08/05 10:07:39;;;;;;;5.18;1.35;;;24.40;57.60;;;;;;6244406;28;20396;-70
2021/08/05 10:10:51;;;;;;;1.67;0.90;;;24.40;57.50;;;;;;6244956;28;20030;-70
2021/08/05 10:13:51;;;;;;;4.05;0.95;;;24.40;57.40;;;;;;6236578;28;20030;-70
2021/08/05 10:16:53;;;;;;;1.85;0.80;;;24.40;57.40;;;;;;6220695;28;20532;-70
2021/08/05 10:19:56;;;;;;;6.53;1.05;;;24.40;57.40;;;;;;6244409;28;20130;-70
2021/08/05 10:22:58;;;;;;;3.60;0.85;;;24.40;57.40;;;;;;6244523;28;20025;-70
2021/08/05 10:26:01;;;;;;;2.40;0.90;;;24.40;57.30;;;;;;6244522;28;20021;-70
2021/08/05 10:29:01;;;;;;;1.30;0.80;;;24.40;57.40;;;;;;6244600;28;20424;-70
2021/08/05 10:32:04;;;;;;;1.13;0.80;;;24.40;57.30;;;;;;6244450;28;20037;-70
2021/08/05 10:35:08;;;;;;;1.83;0.77;;;24.40;57.30;;;;;;6220010;28;20037;-70
2021/08/05 10:38:09;;;;;;;1.10;1.00;;;24.40;57.30;;;;;;6227550;28;20028;-70
2021/08/05 10:41:10;;;;;;;1.05;0.80;;;24.40;57.30;;;;;;6244706;28;20029;-70
2021/08/05 10:44:12;;;;;;;2.10;0.88;;;24.40;57.30;;;;;;6244157;28;20036;-69
2021/08/05 10:47:19;;;;;;;0.85;0.75;;;24.40;57.30;;;;;;6244424;28;20038;-69
2021/08/05 10:50:22;;;;;;;0.90;0.80;;;24.40;57.40;;;;;;6245189;28;20461;-70
2021/08/05 10:53:31;;;;;;;2.17;0.85;;;24.40;57.30;;;;;;6244594;28;20091;-70
2021/08/05 10:56:32;;;;;;;2.75;1.00;;;24.40;57.40;;;;;;6244047;28;20068;-69
2021/08/05 10:59:33;;;;;;;1.13;0.75;;;24.40;57.30;;;;;;6244422;28;20437;-69
2021/08/05 11:02:52;;;;;;;1.00;0.90;;;24.40;57.40;;;;;;6244336;28;20353;-70
2021/08/05 11:05:54;;;;;;;1.23;0.90;;;24.40;57.30;;;;;;6244479;28;20026;-69
2021/08/05 11:08:54;;;;;;;0.85;0.70;;;24.40;57.30;;;;;;6244140;28;20030;-70
2021/08/05 11:11:56;;;;;;;1.30;0.68;;;24.40;57.40;;;;;;6242546;28;20036;-70
2021/08/05 11:14:56;;;;;;;1.48;0.90;;;24.40;58.00;;;;;;6240733;28;20025;-70
2021/08/05 11:18:18;;;;;;;0.90;0.55;;;24.40;57.40;;;;;;6243423;28;20381;-69
2021/08/05 11:21:22;;;;;;;0.70;0.70;;;24.40;57.40;;;;;;6243630;28;20096;-69
2021/08/05 11:24:41;;;;;;;0.82;0.68;;;24.40;57.30;;;;;;6243830;28;20504;-70
2021/08/05 11:27:46;;;;;;;1.05;0.90;;;24.40;57.40;;;;;;6243242;28;20029;-70
2021/08/05 11:30:58;;;;;;;1.90;0.80;;;24.40;57.40;;;;;;6243213;28;20029;-69
2021/08/05 11:34:09;;;;;;;1.02;0.80;;;24.40;57.40;;;;;;6243426;28;20113;-69
2021/08/05 11:37:10;;;;;;;0.77;0.65;;;24.40;57.40;;;;;;6243854;28;20060;-70
2021/08/05 11:40:10;;;;;;;1.45;0.85;;;24.40;57.40;;;;;;6243249;28;20031;-70
2021/08/05 11:43:22;;;;;;;0.80;0.80;;;24.40;57.40;;;;;;6243741;28;20057;-70
2021/08/05 11:46:29;;;;;;;1.67;0.90;;;24.40;57.40;;;;;;6243038;28;20026;-69
2021/08/05 11:49:33;;;;;;;1.15;0.68;;;24.40;57.40;;;;;;6243402;28;20045;-69
2021/08/05 11:52:36;;;;;;;0.93;0.73;;;24.40;57.40;;;;;;6243288;28;20025;-70
2021/08/05 11:55:38;;;;;;;0.80;0.80;;;24.40;57.40;;;;;;6243093;28;20385;-69
2021/08/05 11:58:42;;;;;;;1.38;0.52;;;24.40;57.40;;;;;;6243240;28;20075;-70
2021/08/05 12:02:12;;;;;;;0.90;0.70;;;24.40;57.40;;;;;;6242673;28;20037;-69
2021/08/05 12:05:13;;;;;;;1.90;0.90;;;24.40;57.40;;;;;;6243887;28;20028;-70
2021/08/05 12:08:19;;;;;;;0.60;0.57;;;24.40;57.40;;;;;;6242949;28;20133;-70
2021/08/05 12:11:20;;;;;;;0.70;0.70;;;24.40;57.50;;;;;;6243100;28;20120;-70
2021/08/05 12:14:20;;;;;;;1.17;0.90;;;24.40;57.40;;;;;;6230353;28;20030;-70
2021/08/05 12:17:37;;;;;;;0.75;0.70;;;24.40;57.50;;;;;;6242934;28;20124;-70
2021/08/05 12:20:44;;;;;;;0.80;0.75;;;24.40;57.50;;;;;;6243428;28;20022;-70
2021/08/05 12:23:52;;;;;;;4.13;1.60;;;24.40;57.50;;;;;;6242901;28;20040;-69
2021/08/05 12:26:59;;;;;;;3.60;0.70;;;24.40;57.50;;;;;;6242860;28;20109;-70
2021/08/05 12:30:08;;;;;;;0.98;0.80;;;24.40;57.50;;;;;;6244338;28;20026;-70
2021/08/05 12:33:12;;;;;;;0.63;0.52;;;24.40;57.50;;;;;;6247138;28;20380;-70
2021/08/05 12:36:23;;;;;;;0.88;0.60;;;24.40;57.50;;;;;;6247297;28;20036;-69
2021/08/05 12:39:25;;;;;;;2.15;0.60;;;24.40;57.50;;;;;;6247623;28;20021;-70
2021/08/05 12:42:26;;;;;;;3.42;0.80;;;24.40;57.50;;;;;;6246835;28;20084;-70
2021/08/05 12:45:27;;;;;;;0.60;0.60;;;24.40;57.50;;;;;;6247035;28;20501;-70
2021/08/05 12:48:27;;;;;;;1.20;0.80;;;24.40;57.50;;;;;;6247559;28;20128;-70
2021/08/05 12:51:31;;;;;;;0.98;0.68;;;24.40;57.50;;;;;;6247029;28;20496;-70
2021/08/05 12:54:33;;;;;;;1.00;0.70;;;24.40;57.50;;;;;;6246647;28;20030;-70
2021/08/05 12:57:40;;;;;;;1.55;0.65;;;24.40;57.50;;;;;;6246232;28;20041;-70
2021/08/05 13:00:40;;;;;;;1.33;0.70;;;24.40;57.50;;;;;;6246330;28;20138;-69
2021/08/05 13:03:43;;;;;;;0.70;0.60;;;24.40;57.50;;;;;;6247017;28;20026;-70
2021/08/05 13:06:59;;;;;;;1.63;0.88;;;24.40;57.60;;;;;;6245900;28;20087;-70
2021/08/05 13:10:00;;;;;;;1.10;0.70;;;24.40;57.60;;;;;;6246611;28;20194;-70
2021/08/05 13:13:00;;;;;;;0.98;0.60;;;24.40;57.50;;;;;;6244515;28;20029;-70
2021/08/05 13:16:20;;;;;;;0.70;0.60;;;24.40;57.50;;;;;;6232883;28;20420;-70
2021/08/05 13:19:20;;;;;;;0.60;0.50;;;24.40;57.50;;;;;;6246186;28;20033;-70
2021/08/05 13:22:42;;;;;;;0.63;0.60;;;24.40;57.50;;;;;;6245715;28;20036;-70
2021/08/05 13:25:43;;;;;;;0.88;0.77;;;24.40;57.50;;;;;;6246212;28;20025;-70
2021/08/05 13:28:44;;;;;;;0.70;0.65;;;24.40;57.50;;;;;;6246100;28;20065;-70
2021/08/05 13:31:57;;;;;;;0.50;0.50;;;24.40;57.60;;;;;;6245506;28;20020;-70
2021/08/05 13:35:07;;;;;;;0.60;0.60;;;24.40;57.60;;;;;;6245410;28;20096;-70
2021/08/05 13:38:08;;;;;;;0.70;0.60;;;24.40;57.50;;;;;;6245456;28;20479;-70
2021/08/05 13:41:08;;;;;;;1.05;0.77;;;24.40;57.60;;;;;;6245193;28;20034;-69
2021/08/05 13:44:09;;;;;;;0.77;0.70;;;24.40;57.60;;;;;;6245136;28;20408;-70
2021/08/05 13:47:10;;;;;;;0.60;0.60;;;24.40;57.60;;;;;;6245764;28;20026;-70
2021/08/05 13:50:27;;;;;;;0.73;0.50;;;24.40;57.60;;;;;;6245942;28;20527;-70
2021/08/05 13:53:27;;;;;;;0.60;0.60;;;24.40;57.60;;;;;;6245278;28;20025;-70
2021/08/05 13:56:28;;;;;;;0.60;0.60;;;24.40;57.60;;;;;;6245342;28;20110;-70
2021/08/05 13:59:29;;;;;;;0.70;0.68;;;24.40;57.70;;;;;;6245329;28;20029;-70
2021/08/05 14:02:29;;;;;;;1.98;0.90;;;24.40;57.70;;;;;;6245269;28;20037;-70
2021/08/05 14:05:30;;;;;;;0.90;0.63;;;24.40;58.30;;;;;;6245427;28;20628;-70
2021/08/05 14:08:30;;;;;;;0.73;0.70;;;24.40;57.70;;;;;;6245222;28;20045;-70
2021/08/05 14:11:31;;;;;;;0.63;0.47;;;24.40;57.70;;;;;;6245057;28;20017;-70
2021/08/05 14:14:32;;;;;;;0.60;0.60;;;24.40;57.70;;;;;;6230832;28;20034;-69
2021/08/05 14:17:32;;;;;;;0.57;0.52;;;24.40;57.70;;;;;;6222231;28;20026;-70
2021/08/05 14:20:33;;;;;;;0.70;0.60;;;24.40;57.70;;;;;;6245284;28;20479;-69
2021/08/05 14:23:34;;;;;;;0.68;0.63;;;24.40;57.70;;;;;;6244540;28;20429;-70
2021/08/05 14:26:34;;;;;;;0.60;0.60;;;24.40;57.70;;;;;;6244767;28;20068;-70
2021/08/05 14:29:35;;;;;;;0.60;0.50;;;24.40;57.70;;;;;;6244558;28;20029;-70
2021/08/05 14:32:36;;;;;;;0.60;0.60;;;24.40;57.70;;;;;;6244423;28;20537;-69
2021/08/05 14:35:37;;;;;;;0.50;0.50;;;24.40;57.70;;;;;;6244153;28;20021;-70
2021/08/05 14:38:37;;;;;;;0.90;0.80;;;24.40;57.70;;;;;;6244548;28;20036;-70
2021/08/05 14:41:38;;;;;;;0.50;0.50;;;24.40;57.70;;;;;;6244578;28;20105;-70
2021/08/05 14:44:38;;;;;;;0.80;0.68;;;24.40;57.80;;;;;;6244181;28;20026;-70
2021/08/05 14:47:39;;;;;;;0.60;0.60;;;24.40;57.70;;;;;;6244140;28;20257;-70
2021/08/05 14:50:39;;;;;;;0.80;0.50;;;24.40;57.80;;;;;;6244239;28;20121;-71
2021/08/05 14:53:40;;;;;;;0.70;0.60;;;24.40;57.70;;;;;;6243081;28;20049;-70
2021/08/05 14:56:41;;;;;;;0.60;0.60;;;24.40;57.70;;;;;;6244409;28;20053;-70
2021/08/05 14:59:41;;;;;;;0.60;0.55;;;24.40;57.80;;;;;;6244155;28;20025;-70
2021/08/05 15:02:42;;;;;;;0.70;0.70;;;24.30;57.70;;;;;;6244360;28;20396;-70
2021/08/05 15:05:42;;;;;;;1.27;0.73;;;24.40;57.80;;;;;;6243978;28;20040;-70
2021/08/05 15:08:43;;;;;;;0.50;0.50;;;24.40;57.80;;;;;;6244392;28;20057;-70
2021/08/05 15:11:43;;;;;;;1.20;0.88;;;24.40;57.80;;;;;;6244217;28;20029;-70
2021/08/05 15:14:44;;;;;;;0.50;0.50;;;24.40;57.80;;;;;;6239049;28;20021;-70
2021/08/05 15:17:44;;;;;;;0.50;0.50;;;24.40;57.80;;;;;;6243745;28;20155;-70
2021/08/05 15:20:45;;;;;;;0.63;0.60;;;24.40;57.80;;;;;;6244068;28;20030;-70
2021/08/05 15:23:46;;;;;;;0.93;0.68;;;24.40;57.80;;;;;;6243875;28;20025;-70
2021/08/05 15:26:47;;;;;;;0.80;0.70;;;24.40;57.80;;;;;;6244406;28;20079;-70
2021/08/05 15:29:47;;;;;;;0.75;0.68;;;24.40;57.80;;;;;;6243156;28;20400;-70
2021/08/05 15:32:48;;;;;;;0.60;0.47;;;24.40;57.80;;;;;;6243904;28;20037;-70
2021/08/05 15:35:48;;;;;;;0.82;0.50;;;24.40;57.80;;;;;;6243583;28;20036;-70
2021/08/05 15:38:49;;;;;;;0.98;0.70;;;24.40;57.80;;;;;;6244296;28;20064;-70
2021/08/05 15:41:49;;;;;;;0.50;0.50;;;24.40;57.80;;;;;;6243027;28;20523;-69
2021/08/05 15:44:50;;;;;;;0.60;0.57;;;24.40;57.80;;;;;;6243518;28;20033;-70
2021/08/05 15:47:50;;;;;;;0.50;0.50;;;24.40;57.80;;;;;;6243467;28;20057;-70
2021/08/05 15:50:51;;;;;;;0.60;0.50;;;24.40;57.80;;;;;;6243771;28;20022;-70